Time;durP1;ratioP1;P1;durP2;ratioP2;P2;SDS_P1;SDS_P2;PMS_P1;PMS_P2;Temp;Humidity;BMP_temperature;BMP_pressure;BME280_temperature;BME280_humidity;BME280_pressure;Samples;Min_cycle;Max_cycle;Signal;HPM_P1;HPM_P2
2022/06/30 00:04:37;;;;;;;8.98;7.55;;;;;;;20.26;59.76;99497.13;10464962;28;20163;-64
2022/06/30 00:09:40;;;;;;;10.23;7.85;;;;;;;20.17;59.86;99498.09;10465827;28;20049;-64
2022/06/30 00:14:41;;;;;;;12.43;8.60;;;;;;;19.97;60.43;99503.88;10465677;28;20059;-64
2022/06/30 00:19:45;;;;;;;8.52;7.63;;;;;;;19.89;60.34;99494.03;10464497;28;20182;-64
2022/06/30 00:24:47;;;;;;;10.02;8.15;;;;;;;19.77;60.82;99484.69;10465327;28;20056;-64
2022/06/30 00:29:49;;;;;;;8.82;7.93;;;;;;;19.76;60.57;99480.38;10465383;28;20049;-64
2022/06/30 00:34:50;;;;;;;11.77;8.18;;;;;;;19.72;60.84;99478.22;10464000;28;20132;-66
2022/06/30 00:39:52;;;;;;;12.30;8.05;;;;;;;19.67;60.68;99493.75;10469400;28;20051;-65
2022/06/30 00:44:54;;;;;;;9.40;7.85;;;;;;;19.63;60.57;99487.94;10473200;28;20131;-64
2022/06/30 00:49:56;;;;;;;9.35;8.32;;;;;;;19.53;60.90;99483.75;10474719;28;20555;-65
2022/06/30 00:54:58;;;;;;;10.15;8.30;;;;;;;19.46;61.22;99489.69;10473356;28;20147;-65
2022/06/30 01:00:03;;;;;;;10.10;8.65;;;;;;;19.38;61.38;99484.34;10472809;28;20048;-64
2022/06/30 01:05:06;;;;;;;10.45;8.57;;;;;;;19.27;61.45;99486.47;10471917;28;20052;-66
2022/06/30 01:15:29;;;;;;;11.60;9.02;;;;;;;19.06;61.79;99478.88;10472652;28;20135;-65
2022/06/30 01:20:33;;;;;;;13.45;9.25;;;;;;;19.05;61.66;99482.53;10472124;28;20048;-66
2022/06/30 01:25:35;;;;;;;9.70;8.32;;;;;;;19.03;61.81;99473.88;10452746;28;20219;-65
2022/06/30 01:30:36;;;;;;;11.68;8.55;;;;;;;19.01;61.78;99480.31;10454896;28;20131;-64
2022/06/30 01:35:41;;;;;;;10.18;8.43;;;;;;;18.97;61.79;99487.72;10471358;28;20537;-65
2022/06/30 01:40:43;;;;;;;9.98;8.57;;;;;;;18.98;61.84;99485.91;10471715;28;20055;-65
2022/06/30 01:45:44;;;;;;;12.35;8.98;;;;;;;18.95;61.61;99487.03;10472017;28;20091;-65
2022/06/30 01:50:46;;;;;;;13.02;8.77;;;;;;;18.87;61.77;99484.34;10472615;28;20072;-64
2022/06/30 01:55:48;;;;;;;10.13;8.18;;;;;;;18.78;61.97;99479.97;10468248;28;20079;-64
2022/06/30 02:00:50;;;;;;;9.85;8.40;;;;;;;18.72;61.76;99488.53;10471805;28;20055;-65
2022/06/30 02:05:51;;;;;;;12.57;9.15;;;;;;;18.64;62.14;99488.47;10476141;28;20080;-65
2022/06/30 02:10:53;;;;;;;10.70;8.70;;;;;;;18.54;62.53;99498.34;10478815;28;20136;-64
2022/06/30 02:15:58;;;;;;;10.82;9.73;;;;;;;18.54;62.63;99493.03;10478620;28;20062;-65
2022/06/30 02:20:59;;;;;;;11.15;9.30;;;;;;;18.52;62.36;99500.31;10478084;28;20048;-65
2022/06/30 02:26:01;;;;;;;12.02;8.05;;;;;;;18.50;62.68;99496.97;10477586;28;20143;-65
2022/06/30 02:31:03;;;;;;;10.35;8.55;;;;;;;18.48;62.54;99496.28;10477259;28;20135;-64
2022/06/30 02:36:06;;;;;;;9.65;8.75;;;;;;;18.50;62.23;99492.50;10474590;28;20080;-65
2022/06/30 02:41:08;;;;;;;9.52;7.82;;;;;;;18.45;62.17;99486.00;10474824;28;20058;-65
2022/06/30 02:46:11;;;;;;;9.80;8.45;;;;;;;18.39;62.30;99484.78;10475488;28;20131;-65
2022/06/30 02:51:13;;;;;;;12.63;8.63;;;;;;;18.31;62.71;99475.94;10475157;28;20049;-65
2022/06/30 02:56:15;;;;;;;13.90;8.52;;;;;;;18.30;62.47;99469.00;10476952;28;20118;-65
2022/06/30 03:01:18;;;;;;;10.40;9.20;;;;;;;18.30;62.56;99474.28;10475947;28;20512;-64
2022/06/30 03:06:20;;;;;;;11.88;8.27;;;;;;;18.22;62.55;99475.03;10469901;28;20170;-64
2022/06/30 03:11:22;;;;;;;12.48;8.90;;;;;;;18.13;62.67;99477.72;10469130;28;20258;-64
2022/06/30 03:16:44;;;;;;;14.02;8.00;;;;;;;18.05;62.55;99477.63;10469220;28;20060;-64
2022/06/30 03:21:46;;;;;;;9.75;8.75;;;;;;;18.03;62.82;99482.25;10467079;28;20091;-65
2022/06/30 03:26:49;;;;;;;12.45;8.88;;;;;;;18.03;62.63;99487.53;10470383;28;20052;-64
2022/06/30 03:31:50;;;;;;;12.35;9.52;;;;;;;18.02;62.78;99480.56;10467279;28;20137;-65
2022/06/30 03:36:52;;;;;;;10.88;8.88;;;;;;;17.89;62.61;99483.59;10465599;28;20049;-65
2022/06/30 03:41:54;;;;;;;10.85;9.00;;;;;;;17.87;62.75;99488.22;10468559;28;20139;-65
2022/06/30 03:46:56;;;;;;;12.25;8.85;;;;;;;17.89;62.99;99494.19;10433532;28;20157;-64
2022/06/30 03:51:58;;;;;;;12.45;8.25;;;;;;;17.97;62.88;99493.44;10467600;28;20056;-65
2022/06/30 03:57:00;;;;;;;11.45;8.38;;;;;;;18.13;62.47;99493.59;10467245;28;20351;-65
2022/06/30 04:02:08;;;;;;;13.55;9.32;;;;;;;18.18;62.05;99480.75;10466396;28;20052;-64
2022/06/30 04:07:10;;;;;;;10.18;8.90;;;;;;;18.25;61.93;99487.13;10466900;28;20480;-65
2022/06/30 04:12:12;;;;;;;12.43;7.90;;;;;;;18.69;61.51;99482.72;10466148;28;20068;-64
2022/06/30 04:17:13;;;;;;;10.70;8.23;;;;;;;20.72;57.22;99471.75;10467630;28;20056;-65
2022/06/30 04:22:16;;;;;;;9.30;7.70;;;;;;;22.53;51.80;99458.22;10467182;28;20139;-64
2022/06/30 04:27:18;;;;;;;11.52;8.00;;;;;;;24.21;48.19;99449.31;10467055;28;20050;-64
2022/06/30 04:32:38;;;;;;;10.18;7.05;;;;;;;25.76;44.74;99448.00;10464792;28;20492;-65
2022/06/30 04:37:39;;;;;;;7.93;6.43;;;;;;;27.09;41.86;99446.13;10467608;28;20059;-65
2022/06/30 04:42:41;;;;;;;8.05;6.00;;;;;;;27.82;39.66;99430.66;10465749;28;20052;-65
2022/06/30 04:47:43;;;;;;;7.78;5.95;;;;;;;28.40;38.66;99426.00;10466185;28;20051;-65
2022/06/30 04:52:45;;;;;;;10.27;5.60;;;;;;;29.34;36.97;99421.16;10464070;28;20590;-65
2022/06/30 04:57:47;;;;;;;10.48;5.55;;;;;;;30.26;35.17;99429.75;10465676;28;20415;-65
2022/06/30 05:02:49;;;;;;;8.18;5.63;;;;;;;30.46;34.46;99421.38;10465572;28;20135;-65
2022/06/30 05:07:50;;;;;;;7.97;6.00;;;;;;;31.00;33.83;99426.50;10447610;28;20049;-66
2022/06/30 05:12:52;;;;;;;9.65;5.60;;;;;;;31.73;32.64;99417.78;10466386;28;20411;-65
2022/06/30 05:17:54;;;;;;;8.88;5.60;;;;;;;31.90;32.17;99413.25;10465559;28;20659;-65
2022/06/30 05:22:56;;;;;;;8.90;5.63;;;;;;;31.81;32.12;99398.47;10464481;28;20464;-65
2022/06/30 05:27:57;;;;;;;9.35;5.45;;;;;;;31.97;31.87;99403.94;10454465;28;20279;-65
2022/06/30 05:32:59;;;;;;;7.50;5.53;;;;;;;31.13;32.87;99414.63;10472491;28;20048;-65
2022/06/30 05:38:01;;;;;;;8.85;5.75;;;;;;;28.82;36.63;99427.91;10473452;28;20051;-66
2022/06/30 05:43:03;;;;;;;10.05;6.63;;;;;;;27.01;39.79;99432.09;10470251;28;20504;-65
2022/06/30 05:48:05;;;;;;;12.35;7.05;;;;;;;26.06;42.05;99429.75;10454794;28;20568;-65
2022/06/30 05:53:07;;;;;;;11.35;8.35;;;;;;;25.38;43.63;99428.06;10472363;28;20072;-65
2022/06/30 05:58:11;;;;;;;11.23;7.80;;;;;;;24.67;45.73;99425.69;10472411;28;20480;-65
2022/06/30 06:03:13;;;;;;;11.75;8.13;;;;;;;24.13;46.92;99431.56;10472531;28;20518;-65
2022/06/30 06:08:15;;;;;;;11.27;8.57;;;;;;;24.15;47.59;99429.53;10471342;28;20063;-65
2022/06/30 06:13:17;;;;;;;14.98;9.10;;;;;;;24.02;48.07;99421.34;10471408;28;20548;-65
2022/06/30 06:18:19;;;;;;;15.20;9.10;;;;;;;24.05;48.26;99429.00;10471968;28;20592;-65
2022/06/30 06:23:20;;;;;;;11.70;10.43;;;;;;;24.14;48.33;99435.88;10469880;28;20171;-65
2022/06/30 06:33:45;;;;;;;15.02;11.30;;;;;;;23.61;50.08;99433.63;10459445;28;20323;-65
2022/06/30 06:38:48;;;;;;;17.05;11.13;;;;;;;23.99;49.29;99435.09;10466424;28;20061;-65
2022/06/30 06:43:51;;;;;;;14.70;9.65;;;;;;;24.31;49.03;99433.00;10464991;28;20056;-65
2022/06/30 06:49:00;;;;;;;12.63;10.55;;;;;;;24.70;48.15;99422.59;10468632;28;20123;-66
2022/06/30 06:54:02;;;;;;;18.75;10.32;;;;;;;25.50;47.15;99420.28;10448400;28;20056;-66
2022/06/30 06:59:04;;;;;;;13.05;9.32;;;;;;;26.25;45.54;99414.75;10461741;28;20055;-66
2022/06/30 07:04:06;;;;;;;12.23;10.23;;;;;;;27.46;43.53;99412.41;10459903;28;20052;-66
2022/06/30 07:09:08;;;;;;;11.07;9.20;;;;;;;29.20;40.50;99412.41;10449694;28;20114;-66
2022/06/30 07:14:09;;;;;;;12.45;8.38;;;;;;;30.34;38.31;99401.59;10464696;28;20169;-66
2022/06/30 07:19:11;;;;;;;12.88;9.10;;;;;;;30.63;37.21;99409.66;10462792;28;20044;-66
2022/06/30 07:24:17;;;;;;;12.18;7.95;;;;;;;31.46;35.73;99410.22;10466673;28;20083;-66
2022/06/30 07:29:19;;;;;;;13.02;7.60;;;;;;;32.47;34.68;99398.63;10466380;28;20135;-66
2022/06/30 07:34:21;;;;;;;13.43;7.63;;;;;;;32.90;33.05;99396.03;10466420;28;20076;-66
2022/06/30 07:39:23;;;;;;;14.80;7.97;;;;;;;32.81;33.06;99394.03;10469013;28;20048;-66
2022/06/30 07:44:25;;;;;;;12.77;7.50;;;;;;;33.07;32.99;99390.63;10463480;28;20123;-66
2022/06/30 07:49:27;;;;;;;14.50;7.78;;;;;;;33.59;31.96;99388.34;10466535;28;20084;-66
2022/06/30 07:54:29;;;;;;;9.93;7.97;;;;;;;33.68;31.64;99390.34;10464201;28;20075;-66
2022/06/30 07:59:30;;;;;;;10.95;7.47;;;;;;;32.88;32.22;99391.97;10463054;28;20080;-66
2022/06/30 08:04:33;;;;;;;13.00;7.65;;;;;;;32.31;33.57;99393.19;10460110;28;20127;-66
2022/06/30 08:09:35;;;;;;;12.05;6.88;;;;;;;33.04;32.05;99389.22;10463230;28;20052;-67
2022/06/30 08:14:36;;;;;;;10.52;7.07;;;;;;;33.61;31.47;99389.72;10462280;28;20420;-66
2022/06/30 08:19:38;;;;;;;9.45;6.72;;;;;;;33.06;31.77;99385.47;10460289;28;20576;-72
2022/06/30 08:24:40;;;;;;;10.50;7.28;;;;;;;33.39;31.95;99383.44;10458045;28;20135;-73
2022/06/30 08:29:41;;;;;;;9.43;6.13;;;;;;;33.76;30.77;99375.50;10461192;28;20198;-73
2022/06/30 08:34:43;;;;;;;10.02;6.15;;;;;;;33.50;31.38;99377.13;10459409;28;20049;-74
2022/06/30 08:45:17;;;;;;;10.93;5.90;;;;;;;33.68;31.18;99363.22;10458430;28;20066;-73
2022/06/30 08:50:20;;;;;;;9.85;6.40;;;;;;;33.95;30.56;99351.56;10450284;28;20048;-73
2022/06/30 08:55:31;;;;;;;10.40;5.50;;;;;;;33.88;31.35;99350.94;10455227;28;20049;-73
2022/06/30 09:00:34;;;;;;;7.53;5.50;;;;;;;33.69;31.19;99354.03;10465020;28;20179;-72
2022/06/30 09:05:36;;;;;;;11.52;6.30;;;;;;;34.18;30.47;99346.66;10466921;28;20135;-71
2022/06/30 09:10:50;;;;;;;8.65;6.45;;;;;;;33.83;30.35;99349.00;10450964;28;20114;-73
2022/06/30 09:15:52;;;;;;;13.02;6.45;;;;;;;33.98;30.37;99345.66;10467620;28;20053;-73
2022/06/30 09:20:55;;;;;;;10.50;5.63;;;;;;;34.32;30.22;99330.72;10467668;28;20119;-73
2022/06/30 09:25:59;;;;;;;7.88;4.70;;;;;;;34.81;28.94;99328.63;10468791;28;20051;-73
2022/06/30 09:31:01;;;;;;;6.90;4.60;;;;;;;35.02;28.42;99331.22;10456317;28;20434;-72
2022/06/30 09:36:28;;;;;;;6.47;3.10;;;;;;;34.95;24.84;99325.22;10448251;28;20135;-73
2022/06/30 09:41:35;;;;;;;9.45;3.28;;;;;;;33.98;25.32;99324.75;10456993;28;20529;-73
2022/06/30 09:46:36;;;;;;;5.22;3.20;;;;;;;32.93;25.29;99327.00;10443808;28;20081;-73
2022/06/30 09:51:41;;;;;;;6.82;2.67;;;;;;;32.99;23.04;99321.44;10431895;28;20059;-73
2022/06/30 09:57:00;;;;;;;6.03;2.53;;;;;;;32.56;24.56;99315.94;10468047;28;20070;-72
2022/06/30 10:02:06;;;;;;;7.07;2.28;;;;;;;32.97;24.01;99310.03;10465683;28;20131;-73
2022/06/30 10:07:08;;;;;;;4.38;2.10;;;;;;;34.00;23.36;99311.72;10467370;28;20044;-72
2022/06/30 10:12:14;;;;;;;4.15;2.10;;;;;;;34.31;22.12;99308.19;10463604;28;20106;-72
2022/06/30 10:17:24;;;;;;;5.32;2.47;;;;;;;33.20;23.71;99303.56;10468005;28;20102;-72
2022/06/30 10:22:28;;;;;;;7.50;2.47;;;;;;;33.11;24.19;99302.34;10464855;28;20608;-72
2022/06/30 10:27:30;;;;;;;5.25;2.53;;;;;;;33.31;23.97;99297.16;10465764;28;20155;-73
2022/06/30 10:32:50;;;;;;;7.32;2.42;;;;;;;33.47;23.80;99299.00;10468428;28;20044;-72
2022/06/30 10:37:59;;;;;;;7.95;2.30;;;;;;;33.36;24.47;99291.81;10470149;28;20127;-72
2022/06/30 10:43:01;;;;;;;6.75;2.60;;;;;;;33.53;24.07;99292.53;10467592;28;20465;-71
2022/06/30 10:48:06;;;;;;;4.93;2.60;;;;;;;33.27;24.23;99287.88;10466343;28;20070;-71
2022/06/30 10:53:13;;;;;;;8.38;2.58;;;;;;;32.94;24.16;99285.31;10468264;28;20484;-71
2022/06/30 10:58:16;;;;;;;6.77;2.47;;;;;;;32.64;25.01;99287.59;10468145;28;20091;-71
2022/06/30 11:03:34;;;;;;;5.20;2.47;;;;;;;32.12;25.15;99277.09;10469460;28;20052;-71
2022/06/30 11:08:36;;;;;;;4.82;2.72;;;;;;;31.39;26.99;99285.19;10467120;28;20649;-71
2022/06/30 11:13:38;;;;;;;6.25;2.42;;;;;;;31.52;26.74;99288.72;10456115;28;20582;-72
2022/06/30 11:18:40;;;;;;;6.22;2.72;;;;;;;32.00;26.12;99280.94;10441461;28;20629;-72
2022/06/30 11:23:46;;;;;;;5.18;2.50;;;;;;;32.11;25.98;99266.50;10465467;28;20134;-72
2022/06/30 11:28:52;;;;;;;7.60;2.80;;;;;;;31.96;27.06;99269.75;10465297;28;20052;-71
2022/06/30 11:34:12;;;;;;;4.28;2.60;;;;;;;31.77;27.57;99270.22;10466036;28;20147;-72
2022/06/30 11:39:18;;;;;;;6.85;2.70;;;;;;;32.08;26.60;99259.72;10463602;28;20091;-72
2022/06/30 11:44:22;;;;;;;6.10;3.20;;;;;;;32.00;27.21;99259.28;10463537;28;20106;-72
2022/06/30 11:49:45;;;;;;;5.00;3.00;;;;;;;31.58;28.10;99258.81;10463728;28;20401;-72
2022/06/30 11:54:54;;;;;;;6.38;3.03;;;;;;;31.82;27.49;99254.91;10467225;28;20075;-70
2022/06/30 12:00:02;;;;;;;5.43;2.60;;;;;;;31.57;26.96;99251.78;10461397;28;20169;-72
2022/06/30 12:05:09;;;;;;;6.25;3.22;;;;;;;31.95;27.49;99253.75;10465950;28;20079;-71
2022/06/30 12:10:13;;;;;;;6.50;3.13;;;;;;;32.36;26.51;99244.41;10466791;28;20055;-71
2022/06/30 12:15:18;;;;;;;6.60;3.10;;;;;;;32.89;26.45;99231.06;10466116;28;20048;-70
2022/06/30 12:20:21;;;;;;;8.20;2.90;;;;;;;32.67;27.03;99222.13;10467074;28;20045;-70
2022/06/30 12:25:23;;;;;;;8.57;2.90;;;;;;;32.83;27.38;99219.34;10464938;28;20131;-71
2022/06/30 12:30:33;;;;;;;5.43;2.47;;;;;;;32.53;27.31;99218.16;10466502;28;20141;-72
2022/06/30 12:35:36;;;;;;;4.85;2.88;;;;;;;31.59;27.88;99219.09;10465498;28;20052;-71
2022/06/30 12:40:40;;;;;;;5.65;2.80;;;;;;;31.14;29.24;99222.59;10466250;28;20055;-70
2022/06/30 12:45:55;;;;;;;6.47;3.00;;;;;;;30.89;29.60;99227.44;10465338;28;20057;-72
2022/06/30 12:50:58;;;;;;;8.23;3.00;;;;;;;30.39;29.35;99221.78;10461005;28;20134;-72
2022/06/30 12:56:23;;;;;;;6.05;2.97;;;;;;;30.59;30.39;99205.22;10460424;28;20356;-73
2022/06/30 13:01:33;;;;;;;4.88;2.90;;;;;;;30.63;28.74;99206.41;10441612;28;20052;-73
2022/06/30 13:06:41;;;;;;;5.50;3.08;;;;;;;30.80;28.44;99195.69;10444307;28;21093;-72
2022/06/30 13:11:48;;;;;;;5.65;2.97;;;;;;;30.79;28.74;99197.53;10456487;28;20044;-72
2022/06/30 13:16:50;;;;;;;7.20;3.10;;;;;;;31.09;28.25;99184.66;10451947;28;20055;-73
2022/06/30 13:21:52;;;;;;;5.88;3.00;;;;;;;31.77;28.42;99168.28;10459658;28;20048;-72
2022/06/30 13:26:55;;;;;;;7.28;3.20;;;;;;;32.03;28.12;99172.22;10457804;28;20121;-73
2022/06/30 13:31:58;;;;;;;5.22;3.03;;;;;;;32.01;27.51;99160.81;10458512;28;20125;-73
2022/06/30 13:37:00;;;;;;;5.20;2.78;;;;;;;31.66;28.17;99155.66;10452538;28;20122;-73
2022/06/30 13:42:02;;;;;;;7.55;3.40;;;;;;;32.06;26.82;99155.50;10456324;28;20053;-73
2022/06/30 13:47:07;;;;;;;6.25;3.20;;;;;;;32.18;26.53;99157.03;10462220;28;20131;-73
2022/06/30 13:52:09;;;;;;;8.02;3.20;;;;;;;31.90;27.32;99143.59;10462251;28;20044;-72
2022/06/30 13:57:10;;;;;;;6.72;3.30;;;;;;;31.83;28.41;99134.84;10466589;28;20135;-72
2022/06/30 14:02:12;;;;;;;7.15;3.15;;;;;;;32.15;27.66;99140.47;10462890;28;20045;-73
2022/06/30 14:07:14;;;;;;;6.10;3.33;;;;;;;32.12;28.31;99131.00;10462056;28;20052;-71
2022/06/30 14:12:16;;;;;;;7.57;3.35;;;;;;;31.77;27.49;99130.44;10466162;28;20701;-72
2022/06/30 14:17:18;;;;;;;7.10;3.30;;;;;;;31.59;27.87;99119.06;10447083;28;20118;-72
2022/06/30 14:22:21;;;;;;;5.95;3.40;;;;;;;31.87;27.85;99117.06;10462709;28;20612;-73
2022/06/30 14:27:22;;;;;;;7.05;3.35;;;;;;;31.60;28.41;99115.31;10463170;28;20167;-72
2022/06/30 14:32:24;;;;;;;7.43;3.38;;;;;;;31.58;27.83;99112.84;10460827;28;20144;-72
2022/06/30 14:37:26;;;;;;;7.45;3.60;;;;;;;31.50;28.03;99113.25;10443131;28;20052;-72
2022/06/30 14:42:43;;;;;;;6.68;3.60;;;;;;;31.54;28.58;99119.00;10449444;28;20131;-74
2022/06/30 14:47:50;;;;;;;5.90;3.28;;;;;;;31.65;27.01;99115.38;10447339;28;20514;-73
2022/06/30 14:52:52;;;;;;;5.90;3.20;;;;;;;31.84;26.73;99105.94;10461983;28;20159;-74
2022/06/30 14:57:56;;;;;;;5.00;3.40;;;;;;;31.91;26.99;99099.28;10462174;28;20183;-73
2022/06/30 15:02:58;;;;;;;8.98;3.30;;;;;;;31.85;27.39;99100.28;10467161;28;20451;-74
2022/06/30 15:08:00;;;;;;;9.13;3.42;;;;;;;31.77;26.41;99089.06;10468708;28;20985;-73
2022/06/30 15:13:02;;;;;;;5.75;3.20;;;;;;;31.72;27.46;99078.97;10464738;28;20052;-73
2022/06/30 15:18:03;;;;;;;5.30;3.50;;;;;;;31.89;26.45;99066.25;10462738;28;20143;-73
2022/06/30 15:28:29;;;;;;;7.53;3.70;;;;;;;31.86;27.34;99038.91;10466976;28;20151;-73
2022/06/30 15:33:31;;;;;;;5.30;3.50;;;;;;;31.97;26.93;99040.66;10449977;28;20131;-71
2022/06/30 15:38:36;;;;;;;5.60;3.40;;;;;;;31.76;26.74;99044.16;10466533;28;20159;-73
2022/06/30 15:43:41;;;;;;;4.95;2.50;;;;;;;31.44;25.50;99025.84;10462278;28;20139;-71
2022/06/30 15:48:43;;;;;;;5.80;2.53;;;;;;;31.73;25.25;99031.13;10466912;28;20044;-73
2022/06/30 15:53:45;;;;;;;7.82;2.85;;;;;;;31.98;24.35;99024.19;10434259;28;20072;-71
2022/06/30 15:58:46;;;;;;;5.05;2.40;;;;;;;31.95;24.14;99031.97;10465263;28;20135;-71
2022/06/30 16:03:49;;;;;;;7.15;2.22;;;;;;;31.97;24.14;99030.66;10465980;28;20084;-73
2022/06/30 16:08:51;;;;;;;4.72;2.10;;;;;;;31.97;23.33;99048.75;10465727;28;20126;-71
2022/06/30 16:13:53;;;;;;;3.90;2.05;;;;;;;32.08;23.69;99051.41;10463777;28;20052;-73
2022/06/30 16:18:55;;;;;;;4.65;2.00;;;;;;;31.99;24.03;99055.59;10466027;28;20087;-73
2022/06/30 16:23:57;;;;;;;6.10;1.75;;;;;;;31.89;23.13;99043.78;10448386;28;20088;-73
2022/06/30 16:28:59;;;;;;;3.85;1.90;;;;;;;31.78;22.99;99042.03;10463522;28;20123;-73
2022/06/30 16:34:01;;;;;;;4.88;2.00;;;;;;;31.66;23.23;99028.59;10465131;28;20123;-73
2022/06/30 16:39:04;;;;;;;6.25;1.80;;;;;;;31.41;24.06;99036.34;10464886;28;20167;-72
2022/06/30 16:44:06;;;;;;;4.35;1.80;;;;;;;31.17;23.68;99037.59;10467053;28;20428;-71
2022/06/30 16:49:08;;;;;;;3.08;1.80;;;;;;;30.82;24.12;99036.97;10466202;28;20130;-73
2022/06/30 16:54:09;;;;;;;6.18;2.10;;;;;;;30.71;24.89;99051.31;10467431;28;21007;-71
2022/06/30 16:59:13;;;;;;;4.03;1.65;;;;;;;30.84;25.35;99059.13;10467469;28;20131;-71
2022/06/30 17:04:14;;;;;;;6.88;2.08;;;;;;;30.81;25.43;99056.91;10466112;28;20163;-70
2022/06/30 17:09:17;;;;;;;4.00;2.00;;;;;;;30.64;26.27;99051.50;10465102;28;20132;-72
2022/06/30 17:14:20;;;;;;;4.35;1.92;;;;;;;30.60;25.75;99048.44;10463484;28;20147;-72
2022/06/30 17:19:22;;;;;;;6.30;1.92;;;;;;;30.62;25.75;99035.53;10461581;28;20104;-72
2022/06/30 17:24:24;;;;;;;6.30;2.00;;;;;;;30.61;26.13;99031.19;10471198;28;20154;-72
2022/06/30 17:29:26;;;;;;;5.05;1.98;;;;;;;30.59;27.04;99035.19;10463494;28;20051;-72
2022/06/30 17:34:28;;;;;;;6.05;1.88;;;;;;;30.47;26.83;99034.44;10471080;28;20131;-72
2022/06/30 17:39:32;;;;;;;2.97;1.70;;;;;;;30.34;27.61;99057.09;10470302;28;20044;-72
2022/06/30 17:44:35;;;;;;;6.80;1.90;;;;;;;30.25;28.04;99063.94;10472809;28;20071;-72
2022/06/30 17:49:40;;;;;;;4.53;1.60;;;;;;;30.16;29.10;99059.97;10472717;28;20088;-72
2022/06/30 17:54:49;;;;;;;5.57;1.92;;;;;;;30.06;29.72;99067.84;10473108;28;20067;-72
2022/06/30 17:59:52;;;;;;;6.45;2.00;;;;;;;29.92;29.90;99077.22;10468774;28;20056;-72
2022/06/30 18:04:54;;;;;;;4.82;2.00;;;;;;;29.74;30.80;99080.06;10451292;28;20044;-72
2022/06/30 18:15:16;;;;;;;6.60;2.58;;;;;;;29.22;30.58;99097.91;10472914;28;20159;-71
2022/06/30 18:20:18;;;;;;;5.05;2.05;;;;;;;28.72;31.05;99113.53;10469106;28;20056;-71
2022/06/30 18:25:20;;;;;;;5.88;1.90;;;;;;;28.73;30.98;99143.94;10472451;28;20071;-70
2022/06/30 18:30:22;;;;;;;6.53;2.20;;;;;;;28.67;29.93;99161.81;10470489;28;20080;-70
2022/06/30 18:35:23;;;;;;;7.50;2.20;;;;;;;28.34;32.12;99190.19;10469382;28;20147;-71
2022/06/30 18:40:26;;;;;;;12.65;2.20;;;;;;;27.66;34.27;99221.53;10471161;28;20067;-71
2022/06/30 18:45:28;;;;;;;5.93;2.10;;;;;;;27.09;35.67;99247.50;10470942;28;20060;-70
2022/06/30 18:50:29;;;;;;;8.50;2.50;;;;;;;26.70;37.11;99277.16;10466074;28;20049;-66
2022/06/30 18:55:31;;;;;;;6.55;1.90;;;;;;;25.87;39.34;99304.59;10467957;28;20552;-66
2022/06/30 19:00:33;;;;;;;17.17;2.38;;;;;;;24.93;41.70;99316.22;10466163;28;20133;-65
2022/06/30 19:05:35;;;;;;;8.65;2.47;;;;;;;24.23;43.14;99335.06;10465517;28;20097;-66
2022/06/30 19:10:38;;;;;;;5.50;2.03;;;;;;;23.38;45.47;99358.16;10468964;28;20060;-66
2022/06/30 19:15:40;;;;;;;9.35;2.33;;;;;;;22.93;46.04;99375.22;10469539;28;20056;-65
2022/06/30 19:20:43;;;;;;;20.17;2.70;;;;;;;22.26;47.10;99424.97;10465080;28;20526;-66
2022/06/30 19:25:45;;;;;;;4.80;2.30;;;;;;;22.08;47.76;99442.25;10468314;28;20450;-65
2022/06/30 19:30:47;;;;;;;6.32;2.80;;;;;;;21.82;47.72;99437.22;10468281;28;20088;-66
2022/06/30 19:35:49;;;;;;;7.53;2.90;;;;;;;21.73;47.47;99464.88;10468873;28;20993;-65
2022/06/30 19:40:51;;;;;;;9.15;2.50;;;;;;;21.54;47.11;99473.28;10468404;28;20143;-65
2022/06/30 19:45:53;;;;;;;6.05;2.58;;;;;;;21.26;47.34;99480.00;10466979;28;20143;-66
2022/06/30 19:50:55;;;;;;;6.97;2.58;;;;;;;20.92;46.40;99505.00;10467636;28;20091;-65
2022/06/30 19:55:56;;;;;;;6.05;2.30;;;;;;;20.72;46.98;99526.75;10467344;28;20059;-65
2022/06/30 20:00:58;;;;;;;4.40;2.00;;;;;;;20.57;47.29;99557.59;10466401;28;20110;-65
2022/06/30 20:06:02;;;;;;;4.00;1.80;;;;;;;20.53;46.26;99575.69;10449250;28;20164;-65
2022/06/30 20:16:25;;;;;;;5.13;1.52;;;;;;;20.49;46.29;99606.25;10467235;28;20106;-65
2022/06/30 20:21:29;;;;;;;4.65;1.40;;;;;;;20.50;46.32;99625.69;10467425;28;20053;-65
2022/06/30 20:26:35;;;;;;;3.45;1.35;;;;;;;20.46;46.13;99624.34;10466283;28;20129;-66
2022/06/30 20:31:38;;;;;;;3.55;1.40;;;;;;;20.46;46.22;99637.63;10465442;28;20469;-66
2022/06/30 20:36:40;;;;;;;2.63;1.20;;;;;;;20.41;46.18;99651.38;10448880;28;20078;-65
2022/06/30 20:41:41;;;;;;;2.65;1.38;;;;;;;20.44;46.22;99650.25;10464605;28;21287;-66
2022/06/30 20:46:43;;;;;;;2.28;1.20;;;;;;;20.33;46.24;99648.69;10466668;28;20135;-65
2022/06/30 20:51:45;;;;;;;2.53;1.23;;;;;;;20.39;46.54;99690.56;10466796;28;20040;-65
2022/06/30 20:56:48;;;;;;;2.10;0.95;;;;;;;20.36;46.04;99705.97;10468851;28;20520;-66
2022/06/30 21:01:50;;;;;;;1.60;1.00;;;;;;;20.22;46.34;99699.44;10442569;28;20047;-65
2022/06/30 21:07:02;;;;;;;1.63;0.90;;;;;;;20.17;46.22;99722.97;10472598;28;20190;-65
2022/06/30 21:12:04;;;;;;;1.40;1.00;;;;;;;20.00;46.06;99714.09;10474552;28;20120;-65
2022/06/30 21:17:06;;;;;;;1.85;0.95;;;;;;;19.93;46.69;99713.03;10473093;28;20389;-65
2022/06/30 21:22:08;;;;;;;1.27;0.82;;;;;;;19.82;46.56;99693.88;10473957;28;20059;-65
2022/06/30 21:27:10;;;;;;;1.35;0.80;;;;;;;19.81;46.54;99697.47;10474104;28;20084;-65
2022/06/30 21:32:15;;;;;;;1.65;0.90;;;;;;;19.40;47.38;99699.84;10472257;28;20048;-65
2022/06/30 21:37:17;;;;;;;2.17;1.00;;;;;;;19.21;47.89;99707.97;10473438;28;20535;-65
2022/06/30 21:42:19;;;;;;;1.67;1.15;;;;;;;19.01;48.20;99698.44;10438591;28;20155;-65
2022/06/30 21:47:21;;;;;;;5.07;1.20;;;;;;;19.00;48.77;99686.19;10470042;28;20080;-65
2022/06/30 21:52:22;;;;;;;3.28;1.20;;;;;;;18.99;48.64;99657.19;10472470;28;20367;-65
2022/06/30 21:57:24;;;;;;;2.47;1.23;;;;;;;18.94;48.45;99644.41;10452568;28;20051;-65
2022/06/30 22:02:26;;;;;;;2.50;1.27;;;;;;;19.06;48.76;99668.88;10472279;28;20055;-65
2022/06/30 22:07:28;;;;;;;1.83;1.00;;;;;;;19.08;48.73;99678.34;10470664;28;20088;-65
2022/06/30 22:12:31;;;;;;;2.25;1.23;;;;;;;18.92;49.19;99666.72;10471945;28;20468;-65
2022/06/30 22:17:33;;;;;;;3.05;1.15;;;;;;;18.93;49.22;99647.22;10470656;28;20462;-65
2022/06/30 22:22:35;;;;;;;2.30;1.20;;;;;;;18.92;49.28;99674.69;10471723;28;20084;-65
2022/06/30 22:27:37;;;;;;;1.88;1.23;;;;;;;18.82;49.66;99698.59;10471880;28;20087;-64
2022/06/30 22:32:39;;;;;;;2.15;1.33;;;;;;;18.51;49.94;99729.88;10470912;28;20055;-65
2022/06/30 22:37:41;;;;;;;3.05;1.48;;;;;;;18.53;50.26;99758.84;10471258;28;20052;-66
2022/06/30 22:42:42;;;;;;;2.03;1.30;;;;;;;18.54;50.17;99769.28;10471242;28;20068;-65
2022/06/30 22:47:44;;;;;;;2.00;1.30;;;;;;;18.58;50.13;99775.94;10469724;28;20159;-65
2022/06/30 22:52:46;;;;;;;2.20;1.15;;;;;;;18.54;50.44;99769.28;10469837;28;20456;-65
2022/06/30 22:57:48;;;;;;;2.17;1.20;;;;;;;18.63;50.25;99773.72;10469210;28;20503;-65
2022/06/30 23:02:50;;;;;;;2.20;1.40;;;;;;;18.63;50.19;99789.59;10469788;28;20155;-64
2022/06/30 23:07:52;;;;;;;1.15;1.05;;;;;;;18.58;50.35;99802.44;10469752;28;20143;-65
2022/06/30 23:12:53;;;;;;;0.80;0.80;;;;;;;18.45;50.40;99801.94;10468959;28;20492;-65
2022/06/30 23:17:55;;;;;;;1.73;1.13;;;;;;;18.48;50.08;99806.13;10468596;28;20491;-65
2022/06/30 23:22:57;;;;;;;2.75;1.30;;;;;;;18.43;50.46;99808.38;10469006;28;20159;-64
2022/06/30 23:28:00;;;;;;;1.75;1.20;;;;;;;18.44;50.24;99815.34;10469366;28;20086;-65
2022/06/30 23:33:01;;;;;;;1.75;1.30;;;;;;;18.26;50.24;99814.41;10466707;28;20083;-65
2022/06/30 23:38:03;;;;;;;2.10;1.30;;;;;;;18.23;50.39;99815.53;10456429;28;20385;-66
2022/06/30 23:43:05;;;;;;;2.08;1.30;;;;;;;18.13;50.42;99835.03;10462260;28;20044;-66
2022/06/30 23:48:07;;;;;;;2.30;1.45;;;;;;;18.29;50.29;99837.94;10463923;28;20091;-65
2022/06/30 23:53:08;;;;;;;1.60;1.30;;;;;;;18.49;49.83;99827.16;10465055;28;20515;-66
2022/06/30 23:58:10;;;;;;;2.45;1.30;;;;;;;18.43;50.12;99826.91;10465621;28;20080;-65
